sensor_id;sensor_type;location;lat;lon;timestamp;temperature;humidity
27940;DHT22;15275;51.716;14.324;2023-09-12T00:00:55;21.90;81.70
27940;DHT22;15275;51.716;14.324;2023-09-12T00:03:21;21.90;81.70
27940;DHT22;15275;51.716;14.324;2023-09-12T00:05:52;21.90;81.60
27940;DHT22;15275;51.716;14.324;2023-09-12T00:08:20;21.80;81.70
27940;DHT22;15275;51.716;14.324;2023-09-12T00:10:46;21.80;81.70
27940;DHT22;15275;51.716;14.324;2023-09-12T00:13:11;21.80;81.70
27940;DHT22;15275;51.716;14.324;2023-09-12T00:15:37;21.80;81.70
27940;DHT22;15275;51.716;14.324;2023-09-12T00:18:03;21.80;81.70
27940;DHT22;15275;51.716;14.324;2023-09-12T00:20:29;21.70;81.70
27940;DHT22;15275;51.716;14.324;2023-09-12T00:22:55;21.70;81.70
27940;DHT22;15275;51.716;14.324;2023-09-12T00:25:21;21.70;81.70
27940;DHT22;15275;51.716;14.324;2023-09-12T00:27:47;21.70;81.70
27940;DHT22;15275;51.716;14.324;2023-09-12T00:30:13;21.60;81.70
27940;DHT22;15275;51.716;14.324;2023-09-12T00:32:40;21.60;81.70
27940;DHT22;15275;51.716;14.324;2023-09-12T00:35:05;21.60;81.80
27940;DHT22;15275;51.716;14.324;2023-09-12T00:37:32;21.60;81.90
27940;DHT22;15275;51.716;14.324;2023-09-12T00:39:58;21.60;81.90
27940;DHT22;15275;51.716;14.324;2023-09-12T00:42:26;21.60;81.90
27940;DHT22;15275;51.716;14.324;2023-09-12T00:44:52;21.60;81.80
27940;DHT22;15275;51.716;14.324;2023-09-12T00:47:18;21.50;81.80
27940;DHT22;15275;51.716;14.324;2023-09-12T00:49:45;21.50;81.80
27940;DHT22;15275;51.716;14.324;2023-09-12T00:52:12;21.50;81.80
27940;DHT22;15275;51.716;14.324;2023-09-12T00:54:38;21.40;81.80
27940;DHT22;15275;51.716;14.324;2023-09-12T00:57:04;21.40;81.80
27940;DHT22;15275;51.716;14.324;2023-09-12T00:59:30;21.40;81.90
27940;DHT22;15275;51.716;14.324;2023-09-12T01:01:56;21.40;81.90
27940;DHT22;15275;51.716;14.324;2023-09-12T01:04:22;21.40;81.90
27940;DHT22;15275;51.716;14.324;2023-09-12T01:06:48;21.40;81.90
27940;DHT22;15275;51.716;14.324;2023-09-12T01:09:13;21.40;81.90
27940;DHT22;15275;51.716;14.324;2023-09-12T01:11:39;21.30;82.00
27940;DHT22;15275;51.716;14.324;2023-09-12T01:14:05;21.30;82.00
27940;DHT22;15275;51.716;14.324;2023-09-12T01:16:31;21.30;82.00
27940;DHT22;15275;51.716;14.324;2023-09-12T01:18:57;21.30;82.00
27940;DHT22;15275;51.716;14.324;2023-09-12T01:21:40;21.30;81.90
27940;DHT22;15275;51.716;14.324;2023-09-12T01:27:19;21.20;81.90
27940;DHT22;15275;51.716;14.324;2023-09-12T01:29:47;21.20;82.00
27940;DHT22;15275;51.716;14.324;2023-09-12T01:32:16;21.20;82.00
27940;DHT22;15275;51.716;14.324;2023-09-12T01:34:43;21.20;82.00
27940;DHT22;15275;51.716;14.324;2023-09-12T01:37:09;21.20;82.00
27940;DHT22;15275;51.716;14.324;2023-09-12T01:39:35;21.20;82.20
27940;DHT22;15275;51.716;14.324;2023-09-12T01:42:00;21.10;82.20
27940;DHT22;15275;51.716;14.324;2023-09-12T01:44:27;21.10;82.20
27940;DHT22;15275;51.716;14.324;2023-09-12T01:46:53;21.10;82.20
27940;DHT22;15275;51.716;14.324;2023-09-12T01:49:21;21.10;82.20
27940;DHT22;15275;51.716;14.324;2023-09-12T01:51:48;21.10;82.20
27940;DHT22;15275;51.716;14.324;2023-09-12T01:54:14;21.10;82.20
27940;DHT22;15275;51.716;14.324;2023-09-12T01:56:40;21.10;82.20
27940;DHT22;15275;51.716;14.324;2023-09-12T01:59:06;21.00;82.20
27940;DHT22;15275;51.716;14.324;2023-09-12T02:01:31;21.00;82.10
27940;DHT22;15275;51.716;14.324;2023-09-12T02:03:57;21.00;82.10
27940;DHT22;15275;51.716;14.324;2023-09-12T02:06:23;21.00;82.10
27940;DHT22;15275;51.716;14.324;2023-09-12T02:08:49;21.00;82.10
27940;DHT22;15275;51.716;14.324;2023-09-12T02:11:14;21.00;82.20
27940;DHT22;15275;51.716;14.324;2023-09-12T02:13:40;21.00;82.20
27940;DHT22;15275;51.716;14.324;2023-09-12T02:16:06;21.00;82.20
27940;DHT22;15275;51.716;14.324;2023-09-12T02:18:31;20.90;82.20
27940;DHT22;15275;51.716;14.324;2023-09-12T02:21:00;20.90;82.20
27940;DHT22;15275;51.716;14.324;2023-09-12T02:23:26;20.90;82.20
27940;DHT22;15275;51.716;14.324;2023-09-12T02:25:51;20.90;82.20
27940;DHT22;15275;51.716;14.324;2023-09-12T02:28:17;20.90;82.20
27940;DHT22;15275;51.716;14.324;2023-09-12T02:30:43;20.80;82.30
27940;DHT22;15275;51.716;14.324;2023-09-12T02:33:08;20.80;82.30
27940;DHT22;15275;51.716;14.324;2023-09-12T02:35:34;20.80;82.30
27940;DHT22;15275;51.716;14.324;2023-09-12T02:38:00;20.80;82.40
27940;DHT22;15275;51.716;14.324;2023-09-12T02:40:25;20.80;82.40
27940;DHT22;15275;51.716;14.324;2023-09-12T02:42:51;20.80;82.40
27940;DHT22;15275;51.716;14.324;2023-09-12T02:45:17;20.80;82.50
27940;DHT22;15275;51.716;14.324;2023-09-12T02:47:43;20.80;82.50
27940;DHT22;15275;51.716;14.324;2023-09-12T02:50:09;20.80;82.50
27940;DHT22;15275;51.716;14.324;2023-09-12T02:52:35;20.70;82.60
27940;DHT22;15275;51.716;14.324;2023-09-12T02:55:00;20.70;82.50
27940;DHT22;15275;51.716;14.324;2023-09-12T02:57:26;20.70;82.50
27940;DHT22;15275;51.716;14.324;2023-09-12T02:59:52;20.70;82.50
27940;DHT22;15275;51.716;14.324;2023-09-12T03:02:17;20.70;82.50
27940;DHT22;15275;51.716;14.324;2023-09-12T03:04:43;20.70;82.60
27940;DHT22;15275;51.716;14.324;2023-09-12T03:07:09;20.70;82.60
27940;DHT22;15275;51.716;14.324;2023-09-12T03:09:34;20.70;82.60
27940;DHT22;15275;51.716;14.324;2023-09-12T03:12:01;20.70;82.60
27940;DHT22;15275;51.716;14.324;2023-09-12T03:14:27;20.70;82.60
27940;DHT22;15275;51.716;14.324;2023-09-12T03:16:53;20.70;82.70
27940;DHT22;15275;51.716;14.324;2023-09-12T03:19:19;20.70;82.70
27940;DHT22;15275;51.716;14.324;2023-09-12T03:21:45;20.70;82.60
27940;DHT22;15275;51.716;14.324;2023-09-12T03:24:10;20.60;82.70
27940;DHT22;15275;51.716;14.324;2023-09-12T03:26:36;20.60;82.60
27940;DHT22;15275;51.716;14.324;2023-09-12T03:29:02;20.60;82.60
27940;DHT22;15275;51.716;14.324;2023-09-12T03:31:29;20.60;82.60
27940;DHT22;15275;51.716;14.324;2023-09-12T03:33:54;20.60;82.70
27940;DHT22;15275;51.716;14.324;2023-09-12T03:36:20;20.60;82.70
27940;DHT22;15275;51.716;14.324;2023-09-12T03:38:46;20.60;82.70
27940;DHT22;15275;51.716;14.324;2023-09-12T03:41:11;20.60;82.70
27940;DHT22;15275;51.716;14.324;2023-09-12T03:43:37;20.60;82.80
27940;DHT22;15275;51.716;14.324;2023-09-12T03:46:03;20.60;82.80
27940;DHT22;15275;51.716;14.324;2023-09-12T03:48:32;20.50;82.70
27940;DHT22;15275;51.716;14.324;2023-09-12T03:50:59;20.50;82.70
27940;DHT22;15275;51.716;14.324;2023-09-12T03:53:24;20.50;82.70
27940;DHT22;15275;51.716;14.324;2023-09-12T03:55:52;20.50;82.70
27940;DHT22;15275;51.716;14.324;2023-09-12T03:58:17;20.50;82.80
27940;DHT22;15275;51.716;14.324;2023-09-12T04:00:43;20.50;82.80
27940;DHT22;15275;51.716;14.324;2023-09-12T04:03:09;20.50;82.80
27940;DHT22;15275;51.716;14.324;2023-09-12T04:05:34;20.50;82.80
27940;DHT22;15275;51.716;14.324;2023-09-12T04:08:00;20.50;82.90
27940;DHT22;15275;51.716;14.324;2023-09-12T04:10:26;20.50;82.90
27940;DHT22;15275;51.716;14.324;2023-09-12T04:12:51;20.40;83.00
27940;DHT22;15275;51.716;14.324;2023-09-12T04:15:17;20.40;83.00
27940;DHT22;15275;51.716;14.324;2023-09-12T04:17:44;20.40;83.00
27940;DHT22;15275;51.716;14.324;2023-09-12T04:20:10;20.40;83.00
27940;DHT22;15275;51.716;14.324;2023-09-12T04:22:39;20.40;83.00
27940;DHT22;15275;51.716;14.324;2023-09-12T04:25:06;20.40;83.00
27940;DHT22;15275;51.716;14.324;2023-09-12T04:27:31;20.40;83.00
27940;DHT22;15275;51.716;14.324;2023-09-12T04:29:58;20.40;83.00
27940;DHT22;15275;51.716;14.324;2023-09-12T04:32:27;20.40;83.00
27940;DHT22;15275;51.716;14.324;2023-09-12T04:34:52;20.40;83.00
27940;DHT22;15275;51.716;14.324;2023-09-12T04:37:18;20.40;83.10
27940;DHT22;15275;51.716;14.324;2023-09-12T04:39:44;20.40;83.10
27940;DHT22;15275;51.716;14.324;2023-09-12T04:42:10;20.40;83.10
27940;DHT22;15275;51.716;14.324;2023-09-12T04:47:44;20.40;83.20
27940;DHT22;15275;51.716;14.324;2023-09-12T04:50:14;20.40;83.20
27940;DHT22;15275;51.716;14.324;2023-09-12T04:56:01;20.40;83.30
27940;DHT22;15275;51.716;14.324;2023-09-12T04:59:09;20.40;83.40
27940;DHT22;15275;51.716;14.324;2023-09-12T05:01:34;20.40;83.50
27940;DHT22;15275;51.716;14.324;2023-09-12T05:04:00;20.50;83.60
27940;DHT22;15275;51.716;14.324;2023-09-12T05:06:26;20.50;83.50
27940;DHT22;15275;51.716;14.324;2023-09-12T05:08:51;20.50;83.50
27940;DHT22;15275;51.716;14.324;2023-09-12T05:11:17;20.50;83.50
27940;DHT22;15275;51.716;14.324;2023-09-12T05:13:43;20.60;83.50
27940;DHT22;15275;51.716;14.324;2023-09-12T05:16:09;20.60;83.50
27940;DHT22;15275;51.716;14.324;2023-09-12T05:18:34;20.70;83.50
27940;DHT22;15275;51.716;14.324;2023-09-12T05:21:00;20.70;83.50
27940;DHT22;15275;51.716;14.324;2023-09-12T05:23:25;20.70;83.60
27940;DHT22;15275;51.716;14.324;2023-09-12T05:25:51;20.80;83.60
27940;DHT22;15275;51.716;14.324;2023-09-12T05:28:17;20.80;83.60
27940;DHT22;15275;51.716;14.324;2023-09-12T05:30:43;20.90;83.60
27940;DHT22;15275;51.716;14.324;2023-09-12T05:33:09;20.90;83.60
27940;DHT22;15275;51.716;14.324;2023-09-12T05:35:34;21.00;83.60
27940;DHT22;15275;51.716;14.324;2023-09-12T05:38:02;21.00;83.70
27940;DHT22;15275;51.716;14.324;2023-09-12T05:40:28;21.10;83.70
27940;DHT22;15275;51.716;14.324;2023-09-12T05:42:53;21.10;83.80
27940;DHT22;15275;51.716;14.324;2023-09-12T05:45:19;21.20;83.70
27940;DHT22;15275;51.716;14.324;2023-09-12T05:47:45;21.20;83.80
27940;DHT22;15275;51.716;14.324;2023-09-12T05:50:10;21.30;83.80
27940;DHT22;15275;51.716;14.324;2023-09-12T05:52:37;21.40;83.80
27940;DHT22;15275;51.716;14.324;2023-09-12T05:55:03;21.40;83.80
27940;DHT22;15275;51.716;14.324;2023-09-12T05:57:29;21.50;83.80
27940;DHT22;15275;51.716;14.324;2023-09-12T05:59:58;21.50;83.80
27940;DHT22;15275;51.716;14.324;2023-09-12T06:02:29;21.60;83.90
27940;DHT22;15275;51.716;14.324;2023-09-12T06:04:55;21.60;83.90
27940;DHT22;15275;51.716;14.324;2023-09-12T06:07:21;21.70;83.80
27940;DHT22;15275;51.716;14.324;2023-09-12T06:09:47;21.70;83.80
27940;DHT22;15275;51.716;14.324;2023-09-12T06:12:12;21.80;83.90
27940;DHT22;15275;51.716;14.324;2023-09-12T06:14:38;21.90;83.90
27940;DHT22;15275;51.716;14.324;2023-09-12T06:17:04;22.00;84.00
27940;DHT22;15275;51.716;14.324;2023-09-12T06:19:29;22.00;84.00
27940;DHT22;15275;51.716;14.324;2023-09-12T06:21:55;22.10;84.10
27940;DHT22;15275;51.716;14.324;2023-09-12T06:24:21;22.20;84.10
27940;DHT22;15275;51.716;14.324;2023-09-12T06:26:48;22.30;84.10
27940;DHT22;15275;51.716;14.324;2023-09-12T06:29:14;22.30;84.10
27940;DHT22;15275;51.716;14.324;2023-09-12T06:31:40;22.40;84.10
27940;DHT22;15275;51.716;14.324;2023-09-12T06:34:09;22.50;84.20
27940;DHT22;15275;51.716;14.324;2023-09-12T06:36:35;22.60;84.10
27940;DHT22;15275;51.716;14.324;2023-09-12T06:39:00;22.70;84.10
27940;DHT22;15275;51.716;14.324;2023-09-12T06:41:26;22.80;84.10
27940;DHT22;15275;51.716;14.324;2023-09-12T06:43:53;22.80;84.00
27940;DHT22;15275;51.716;14.324;2023-09-12T06:46:18;22.90;84.10
27940;DHT22;15275;51.716;14.324;2023-09-12T06:48:45;23.00;84.10
27940;DHT22;15275;51.716;14.324;2023-09-12T06:51:11;23.10;84.00
27940;DHT22;15275;51.716;14.324;2023-09-12T06:53:37;23.20;84.10
27940;DHT22;15275;51.716;14.324;2023-09-12T06:56:05;23.30;84.00
27940;DHT22;15275;51.716;14.324;2023-09-12T06:58:31;23.40;84.10
27940;DHT22;15275;51.716;14.324;2023-09-12T07:01:07;23.50;84.00
27940;DHT22;15275;51.716;14.324;2023-09-12T07:03:33;23.60;83.70
27940;DHT22;15275;51.716;14.324;2023-09-12T07:05:59;23.70;82.80
27940;DHT22;15275;51.716;14.324;2023-09-12T07:08:25;23.80;83.30
27940;DHT22;15275;51.716;14.324;2023-09-12T07:10:51;23.90;83.40
27940;DHT22;15275;51.716;14.324;2023-09-12T07:13:21;24.00;83.20
27940;DHT22;15275;51.716;14.324;2023-09-12T07:15:47;24.00;83.10
27940;DHT22;15275;51.716;14.324;2023-09-12T07:18:12;24.10;82.90
27940;DHT22;15275;51.716;14.324;2023-09-12T07:20:40;24.20;82.90
27940;DHT22;15275;51.716;14.324;2023-09-12T07:23:06;24.30;82.40
27940;DHT22;15275;51.716;14.324;2023-09-12T07:25:37;24.40;82.90
27940;DHT22;15275;51.716;14.324;2023-09-12T07:28:05;24.50;83.00
27940;DHT22;15275;51.716;14.324;2023-09-12T07:30:30;24.60;83.10
27940;DHT22;15275;51.716;14.324;2023-09-12T07:32:56;24.70;82.90
27940;DHT22;15275;51.716;14.324;2023-09-12T07:35:22;24.80;82.80
27940;DHT22;15275;51.716;14.324;2023-09-12T07:37:49;24.90;81.70
27940;DHT22;15275;51.716;14.324;2023-09-12T07:40:15;25.00;82.00
27940;DHT22;15275;51.716;14.324;2023-09-12T07:42:41;25.10;82.20
27940;DHT22;15275;51.716;14.324;2023-09-12T07:45:07;25.20;81.70
27940;DHT22;15275;51.716;14.324;2023-09-12T07:47:33;25.20;82.00
27940;DHT22;15275;51.716;14.324;2023-09-12T07:49:59;25.30;81.90
27940;DHT22;15275;51.716;14.324;2023-09-12T07:52:26;25.40;82.20
27940;DHT22;15275;51.716;14.324;2023-09-12T07:54:52;25.50;82.20
27940;DHT22;15275;51.716;14.324;2023-09-12T07:57:22;25.60;82.20
27940;DHT22;15275;51.716;14.324;2023-09-12T07:59:48;25.70;82.20
27940;DHT22;15275;51.716;14.324;2023-09-12T08:02:14;25.80;80.90
27940;DHT22;15275;51.716;14.324;2023-09-12T08:04:40;25.90;81.50
27940;DHT22;15275;51.716;14.324;2023-09-12T08:07:06;26.00;81.50
27940;DHT22;15275;51.716;14.324;2023-09-12T08:09:48;26.10;81.40
27940;DHT22;15275;51.716;14.324;2023-09-12T08:12:18;26.20;81.60
27940;DHT22;15275;51.716;14.324;2023-09-12T08:14:44;26.30;81.30
27940;DHT22;15275;51.716;14.324;2023-09-12T08:17:11;26.40;80.40
27940;DHT22;15275;51.716;14.324;2023-09-12T08:19:37;26.50;80.90
27940;DHT22;15275;51.716;14.324;2023-09-12T08:22:03;26.60;81.40
27940;DHT22;15275;51.716;14.324;2023-09-12T08:24:30;26.70;81.20
27940;DHT22;15275;51.716;14.324;2023-09-12T08:26:55;26.80;80.90
27940;DHT22;15275;51.716;14.324;2023-09-12T08:29:21;26.90;80.80
27940;DHT22;15275;51.716;14.324;2023-09-12T08:31:47;27.00;81.10
27940;DHT22;15275;51.716;14.324;2023-09-12T08:34:12;27.10;81.40
27940;DHT22;15275;51.716;14.324;2023-09-12T08:36:39;27.20;80.80
27940;DHT22;15275;51.716;14.324;2023-09-12T08:39:04;27.30;81.20
27940;DHT22;15275;51.716;14.324;2023-09-12T08:41:33;27.40;81.20
27940;DHT22;15275;51.716;14.324;2023-09-12T08:43:59;27.50;81.40
27940;DHT22;15275;51.716;14.324;2023-09-12T08:46:26;27.70;81.10
27940;DHT22;15275;51.716;14.324;2023-09-12T08:48:51;27.80;81.10
27940;DHT22;15275;51.716;14.324;2023-09-12T08:51:18;27.90;81.00
27940;DHT22;15275;51.716;14.324;2023-09-12T08:53:44;28.00;81.20
27940;DHT22;15275;51.716;14.324;2023-09-12T08:56:10;28.10;80.80
27940;DHT22;15275;51.716;14.324;2023-09-12T08:58:36;28.20;80.80
27940;DHT22;15275;51.716;14.324;2023-09-12T09:01:02;28.30;80.70
27940;DHT22;15275;51.716;14.324;2023-09-12T09:03:28;28.40;80.60
27940;DHT22;15275;51.716;14.324;2023-09-12T09:05:54;28.50;80.80
27940;DHT22;15275;51.716;14.324;2023-09-12T09:08:21;28.60;80.30
27940;DHT22;15275;51.716;14.324;2023-09-12T09:10:57;28.70;79.40
27940;DHT22;15275;51.716;14.324;2023-09-12T09:13:24;28.80;79.90
27940;DHT22;15275;51.716;14.324;2023-09-12T09:15:59;28.90;80.20
27940;DHT22;15275;51.716;14.324;2023-09-12T09:18:57;29.00;78.60
27940;DHT22;15275;51.716;14.324;2023-09-12T09:21:30;29.10;79.40
27940;DHT22;15275;51.716;14.324;2023-09-12T09:24:16;29.20;79.70
27940;DHT22;15275;51.716;14.324;2023-09-12T09:29:09;29.40;78.60
27940;DHT22;15275;51.716;14.324;2023-09-12T09:31:39;29.50;79.20
27940;DHT22;15275;51.716;14.324;2023-09-12T09:34:10;29.60;79.50
27940;DHT22;15275;51.716;14.324;2023-09-12T09:36:42;29.70;79.50
27940;DHT22;15275;51.716;14.324;2023-09-12T09:39:15;29.80;77.90
27940;DHT22;15275;51.716;14.324;2023-09-12T09:41:42;29.90;78.10
27940;DHT22;15275;51.716;14.324;2023-09-12T09:44:08;30.00;78.40
27940;DHT22;15275;51.716;14.324;2023-09-12T09:46:37;30.10;78.40
27940;DHT22;15275;51.716;14.324;2023-09-12T09:49:03;30.10;78.60
27940;DHT22;15275;51.716;14.324;2023-09-12T09:51:32;30.20;78.70
27940;DHT22;15275;51.716;14.324;2023-09-12T09:53:57;30.30;76.60
27940;DHT22;15275;51.716;14.324;2023-09-12T09:56:24;30.40;76.40
27940;DHT22;15275;51.716;14.324;2023-09-12T09:58:51;30.50;75.70
27940;DHT22;15275;51.716;14.324;2023-09-12T10:01:22;30.60;77.40
27940;DHT22;15275;51.716;14.324;2023-09-12T10:03:50;30.70;75.20
27940;DHT22;15275;51.716;14.324;2023-09-12T10:06:17;30.80;76.30
27940;DHT22;15275;51.716;14.324;2023-09-12T10:08:44;30.80;73.40
27940;DHT22;15275;51.716;14.324;2023-09-12T10:11:14;30.90;75.10
27940;DHT22;15275;51.716;14.324;2023-09-12T10:13:46;31.00;75.70
27940;DHT22;15275;51.716;14.324;2023-09-12T10:16:15;31.00;73.60
27940;DHT22;15275;51.716;14.324;2023-09-12T10:18:48;31.10;75.80
27940;DHT22;15275;51.716;14.324;2023-09-12T10:21:19;31.20;76.70
27940;DHT22;15275;51.716;14.324;2023-09-12T10:23:49;31.30;74.90
27940;DHT22;15275;51.716;14.324;2023-09-12T10:26:16;31.40;74.60
27940;DHT22;15275;51.716;14.324;2023-09-12T10:28:42;31.50;74.40
27940;DHT22;15275;51.716;14.324;2023-09-12T10:31:08;31.60;75.10
27940;DHT22;15275;51.716;14.324;2023-09-12T10:33:37;31.60;72.00
27940;DHT22;15275;51.716;14.324;2023-09-12T10:36:04;31.70;69.90
27940;DHT22;15275;51.716;14.324;2023-09-12T10:38:32;31.80;73.70
27940;DHT22;15275;51.716;14.324;2023-09-12T10:40:59;31.80;75.90
27940;DHT22;15275;51.716;14.324;2023-09-12T10:43:26;32.00;76.20
27940;DHT22;15275;51.716;14.324;2023-09-12T10:45:52;32.10;76.50
27940;DHT22;15275;51.716;14.324;2023-09-12T10:48:18;32.10;70.00
27940;DHT22;15275;51.716;14.324;2023-09-12T10:50:43;32.20;75.50
27940;DHT22;15275;51.716;14.324;2023-09-12T10:53:13;32.30;76.40
27940;DHT22;15275;51.716;14.324;2023-09-12T10:55:57;32.40;75.20
27940;DHT22;15275;51.716;14.324;2023-09-12T10:58:24;32.40;75.10
27940;DHT22;15275;51.716;14.324;2023-09-12T11:03:47;32.60;75.90
27940;DHT22;15275;51.716;14.324;2023-09-12T11:06:19;32.60;75.90
27940;DHT22;15275;51.716;14.324;2023-09-12T11:09:15;32.70;76.60
27940;DHT22;15275;51.716;14.324;2023-09-12T11:11:38;32.70;73.90
27940;DHT22;15275;51.716;14.324;2023-09-12T11:14:04;32.70;74.40
27940;DHT22;15275;51.716;14.324;2023-09-12T11:16:31;32.80;75.40
27940;DHT22;15275;51.716;14.324;2023-09-12T11:19:11;32.80;76.60
27940;DHT22;15275;51.716;14.324;2023-09-12T11:21:37;32.90;74.50
27940;DHT22;15275;51.716;14.324;2023-09-12T11:24:03;33.00;75.90
27940;DHT22;15275;51.716;14.324;2023-09-12T11:26:29;33.00;76.90
27940;DHT22;15275;51.716;14.324;2023-09-12T11:28:55;33.10;76.10
27940;DHT22;15275;51.716;14.324;2023-09-12T11:31:24;33.20;75.00
27940;DHT22;15275;51.716;14.324;2023-09-12T11:33:52;33.30;74.30
27940;DHT22;15275;51.716;14.324;2023-09-12T11:36:18;33.30;73.80
27940;DHT22;15275;51.716;14.324;2023-09-12T11:38:44;33.40;75.50
27940;DHT22;15275;51.716;14.324;2023-09-12T11:41:14;33.40;76.10
27940;DHT22;15275;51.716;14.324;2023-09-12T11:44:06;33.50;76.80
27940;DHT22;15275;51.716;14.324;2023-09-12T11:46:32;33.50;76.30
27940;DHT22;15275;51.716;14.324;2023-09-12T11:49:01;33.50;73.00
27940;DHT22;15275;51.716;14.324;2023-09-12T11:51:26;33.50;74.90
27940;DHT22;15275;51.716;14.324;2023-09-12T11:53:52;33.60;75.80
27940;DHT22;15275;51.716;14.324;2023-09-12T11:56:18;33.60;73.40
27940;DHT22;15275;51.716;14.324;2023-09-12T11:58:44;33.60;69.50
27940;DHT22;15275;51.716;14.324;2023-09-12T12:01:11;33.70;74.90
27940;DHT22;15275;51.716;14.324;2023-09-12T12:03:38;33.80;75.30
27940;DHT22;15275;51.716;14.324;2023-09-12T12:06:04;33.80;76.00
27940;DHT22;15275;51.716;14.324;2023-09-12T12:08:30;33.90;75.70
27940;DHT22;15275;51.716;14.324;2023-09-12T12:10:56;34.00;76.00
27940;DHT22;15275;51.716;14.324;2023-09-12T12:13:24;34.00;76.50
27940;DHT22;15275;51.716;14.324;2023-09-12T12:15:49;34.10;74.40
27940;DHT22;15275;51.716;14.324;2023-09-12T12:18:15;34.20;74.20
27940;DHT22;15275;51.716;14.324;2023-09-12T12:20:41;34.20;75.30
27940;DHT22;15275;51.716;14.324;2023-09-12T12:23:07;34.20;76.30
27940;DHT22;15275;51.716;14.324;2023-09-12T12:25:33;34.30;76.60
27940;DHT22;15275;51.716;14.324;2023-09-12T12:28:00;34.40;76.60
27940;DHT22;15275;51.716;14.324;2023-09-12T12:30:29;34.40;76.80
27940;DHT22;15275;51.716;14.324;2023-09-12T12:32:55;34.50;75.90
27940;DHT22;15275;51.716;14.324;2023-09-12T12:35:22;34.60;73.00
27940;DHT22;15275;51.716;14.324;2023-09-12T12:37:49;34.60;74.10
27940;DHT22;15275;51.716;14.324;2023-09-12T12:40:15;34.60;74.30
27940;DHT22;15275;51.716;14.324;2023-09-12T12:42:42;34.60;73.40
27940;DHT22;15275;51.716;14.324;2023-09-12T12:45:13;34.60;73.40
27940;DHT22;15275;51.716;14.324;2023-09-12T12:47:44;34.60;71.60
27940;DHT22;15275;51.716;14.324;2023-09-12T12:50:13;34.60;69.30
27940;DHT22;15275;51.716;14.324;2023-09-12T12:52:40;34.60;69.20
27940;DHT22;15275;51.716;14.324;2023-09-12T12:55:06;34.60;70.80
27940;DHT22;15275;51.716;14.324;2023-09-12T12:57:40;34.60;73.70
27940;DHT22;15275;51.716;14.324;2023-09-12T13:00:11;34.70;75.00
27940;DHT22;15275;51.716;14.324;2023-09-12T13:02:39;34.70;75.30
27940;DHT22;15275;51.716;14.324;2023-09-12T13:05:06;34.80;74.80
27940;DHT22;15275;51.716;14.324;2023-09-12T13:07:45;34.90;74.80
27940;DHT22;15275;51.716;14.324;2023-09-12T13:10:11;34.90;73.90
27940;DHT22;15275;51.716;14.324;2023-09-12T13:12:36;35.00;73.90
27940;DHT22;15275;51.716;14.324;2023-09-12T13:15:03;35.00;75.30
27940;DHT22;15275;51.716;14.324;2023-09-12T13:17:30;35.10;75.30
27940;DHT22;15275;51.716;14.324;2023-09-12T13:19:56;35.20;75.70
27940;DHT22;15275;51.716;14.324;2023-09-12T13:22:21;35.20;75.70
27940;DHT22;15275;51.716;14.324;2023-09-12T13:24:47;35.30;75.40
27940;DHT22;15275;51.716;14.324;2023-09-12T13:27:13;35.30;75.60
27940;DHT22;15275;51.716;14.324;2023-09-12T13:29:39;35.40;75.10
27940;DHT22;15275;51.716;14.324;2023-09-12T13:32:05;35.40;75.20
27940;DHT22;15275;51.716;14.324;2023-09-12T13:34:30;35.40;75.50
27940;DHT22;15275;51.716;14.324;2023-09-12T13:36:56;35.40;71.50
27940;DHT22;15275;51.716;14.324;2023-09-12T13:39:23;35.40;74.50
27940;DHT22;15275;51.716;14.324;2023-09-12T13:41:50;35.40;74.80
27940;DHT22;15275;51.716;14.324;2023-09-12T13:44:16;35.40;74.40
27940;DHT22;15275;51.716;14.324;2023-09-12T13:46:42;35.40;74.10
27940;DHT22;15275;51.716;14.324;2023-09-12T13:49:09;35.40;68.50
27940;DHT22;15275;51.716;14.324;2023-09-12T13:51:35;35.40;73.50
27940;DHT22;15275;51.716;14.324;2023-09-12T13:54:01;35.40;74.80
27940;DHT22;15275;51.716;14.324;2023-09-12T13:56:28;35.40;74.70
27940;DHT22;15275;51.716;14.324;2023-09-12T13:58:54;35.50;75.30
27940;DHT22;15275;51.716;14.324;2023-09-12T14:01:19;35.50;75.80
27940;DHT22;15275;51.716;14.324;2023-09-12T14:03:45;35.60;75.50
27940;DHT22;15275;51.716;14.324;2023-09-12T14:06:11;35.60;74.30
27940;DHT22;15275;51.716;14.324;2023-09-12T14:08:37;35.70;74.90
27940;DHT22;15275;51.716;14.324;2023-09-12T14:11:02;35.70;74.80
27940;DHT22;15275;51.716;14.324;2023-09-12T14:13:28;35.70;75.10
27940;DHT22;15275;51.716;14.324;2023-09-12T14:15:54;35.70;75.40
27940;DHT22;15275;51.716;14.324;2023-09-12T14:18:19;35.70;75.20
27940;DHT22;15275;51.716;14.324;2023-09-12T14:20:46;35.70;74.00
27940;DHT22;15275;51.716;14.324;2023-09-12T14:23:12;35.70;74.70
27940;DHT22;15275;51.716;14.324;2023-09-12T14:25:37;35.80;75.20
27940;DHT22;15275;51.716;14.324;2023-09-12T14:28:03;35.80;75.40
27940;DHT22;15275;51.716;14.324;2023-09-12T14:30:30;35.80;75.20
27940;DHT22;15275;51.716;14.324;2023-09-12T14:35:29;35.80;75.20
27940;DHT22;15275;51.716;14.324;2023-09-12T14:37:54;35.80;75.30
27940;DHT22;15275;51.716;14.324;2023-09-12T14:40:20;35.80;74.50
27940;DHT22;15275;51.716;14.324;2023-09-12T14:42:46;35.80;73.90
27940;DHT22;15275;51.716;14.324;2023-09-12T14:45:12;35.70;71.80
27940;DHT22;15275;51.716;14.324;2023-09-12T14:47:39;35.70;73.70
27940;DHT22;15275;51.716;14.324;2023-09-12T14:50:05;35.70;65.40
27940;DHT22;15275;51.716;14.324;2023-09-12T14:52:31;35.60;67.30
27940;DHT22;15275;51.716;14.324;2023-09-12T14:54:56;35.60;69.40
27940;DHT22;15275;51.716;14.324;2023-09-12T14:57:23;35.50;73.00
27940;DHT22;15275;51.716;14.324;2023-09-12T14:59:50;35.50;69.50
27940;DHT22;15275;51.716;14.324;2023-09-12T15:02:16;35.40;72.80
27940;DHT22;15275;51.716;14.324;2023-09-12T15:04:41;35.40;72.70
27940;DHT22;15275;51.716;14.324;2023-09-12T15:07:07;35.40;70.20
27940;DHT22;15275;51.716;14.324;2023-09-12T15:09:33;35.40;71.40
27940;DHT22;15275;51.716;14.324;2023-09-12T15:11:59;35.40;74.40
27940;DHT22;15275;51.716;14.324;2023-09-12T15:14:25;35.40;74.10
27940;DHT22;15275;51.716;14.324;2023-09-12T15:16:50;35.40;74.40
27940;DHT22;15275;51.716;14.324;2023-09-12T15:19:16;35.40;74.00
27940;DHT22;15275;51.716;14.324;2023-09-12T15:21:42;35.40;74.20
27940;DHT22;15275;51.716;14.324;2023-09-12T15:24:07;35.40;74.10
27940;DHT22;15275;51.716;14.324;2023-09-12T15:26:34;35.40;74.40
27940;DHT22;15275;51.716;14.324;2023-09-12T15:28:59;35.40;75.30
27940;DHT22;15275;51.716;14.324;2023-09-12T15:31:26;35.40;75.10